createdAt,value
2023-05-04T00:02:06.465Z,45.69
2023-05-04T00:04:33.247Z,45.91
2023-05-04T00:07:00.069Z,46.09
2023-05-04T00:09:26.971Z,45.20
2023-05-04T00:11:53.617Z,44.97
2023-05-04T00:14:20.334Z,46.13
2023-05-04T00:16:47.243Z,45.07
2023-05-04T00:19:13.967Z,46.13
2023-05-04T00:21:40.743Z,45.33
2023-05-04T00:24:07.455Z,45.47
2023-05-04T00:26:34.136Z,45.02
2023-05-04T00:29:00.760Z,45.52
2023-05-04T00:31:27.524Z,45.96
2023-05-04T00:33:54.362Z,45.80
2023-05-04T00:36:21.004Z,46.69
2023-05-04T00:38:52.082Z,47.43
2023-05-04T00:41:20.003Z,47.23
2023-05-04T00:43:47.679Z,47.30
2023-05-04T00:46:14.984Z,46.66
2023-05-04T00:48:42.875Z,47.17
2023-05-04T00:51:11.902Z,47.51
2023-05-04T00:53:39.484Z,47.76
2023-05-04T00:56:07.512Z,47.75
2023-05-04T00:58:34.935Z,47.00
2023-05-04T01:01:02.394Z,47.44
2023-05-04T01:03:30.338Z,48.71
2023-05-04T01:06:23.581Z,50.67
2023-05-04T01:09:03.186Z,50.74
2023-05-04T01:11:42.495Z,50.79
2023-05-04T01:14:11.037Z,52.40
2023-05-04T01:16:37.808Z,52.65
2023-05-04T01:19:04.578Z,52.89
2023-05-04T01:21:31.350Z,51.51
2023-05-04T01:23:58.999Z,51.07
2023-05-04T01:26:29.767Z,50.21
2023-05-04T01:29:07.651Z,50.48
2023-05-04T01:31:36.614Z,50.38
2023-05-04T01:34:05.079Z,50.70
2023-05-04T01:36:35.106Z,51.37
2023-05-04T01:39:03.318Z,51.25
2023-05-04T01:41:33.373Z,50.89
2023-05-04T01:44:00.170Z,50.95
2023-05-04T01:46:26.861Z,51.03
2023-05-04T01:48:53.574Z,51.38
2023-05-04T01:51:22.554Z,51.46
2023-05-04T01:53:50.531Z,51.54
2023-05-04T01:56:17.470Z,51.92
2023-05-04T01:58:45.792Z,52.46
2023-05-04T02:01:12.480Z,52.41
2023-05-04T02:03:39.745Z,52.44
2023-05-04T02:06:07.064Z,52.92
2023-05-04T02:08:33.795Z,52.64
2023-05-04T02:11:00.638Z,52.42
2023-05-04T02:13:47.135Z,52.42
2023-05-04T02:16:13.782Z,52.94
2023-05-04T02:18:40.612Z,52.87
2023-05-04T02:21:07.800Z,53.68
2023-05-04T02:23:34.926Z,53.55
2023-05-04T02:26:01.645Z,53.90
2023-05-04T02:28:28.394Z,54.21
2023-05-04T02:30:55.016Z,54.80
2023-05-04T02:33:21.663Z,55.00
2023-05-04T02:35:48.548Z,55.52
2023-05-04T02:38:15.529Z,55.44
2023-05-04T02:40:42.171Z,56.05
2023-05-04T02:43:08.871Z,56.27
2023-05-04T02:45:35.863Z,55.97
2023-05-04T02:48:02.771Z,56.60
2023-05-04T02:50:29.474Z,56.77
2023-05-04T02:52:56.182Z,57.22
2023-05-04T02:55:22.925Z,57.29
2023-05-04T02:57:49.573Z,58.36
2023-05-04T03:00:16.697Z,58.58
2023-05-04T03:02:43.440Z,59.06
2023-05-04T03:05:10.866Z,58.48
2023-05-04T03:07:37.535Z,58.28
2023-05-04T03:10:04.931Z,57.63
2023-05-04T03:12:32.977Z,57.30
2023-05-04T03:14:59.674Z,57.84
2023-05-04T03:17:26.690Z,58.73
2023-05-04T03:19:55.338Z,57.78
2023-05-04T03:22:22.525Z,56.78
2023-05-04T03:24:49.774Z,56.80
2023-05-04T03:27:17.280Z,57.21
2023-05-04T03:29:44.262Z,57.86
2023-05-04T03:32:13.066Z,58.61
2023-05-04T03:34:39.941Z,59.42
2023-05-04T03:37:06.674Z,58.24
2023-05-04T03:39:33.532Z,59.18
2023-05-04T03:42:00.874Z,58.91
2023-05-04T03:44:27.567Z,58.43
2023-05-04T03:46:54.249Z,59.46
2023-05-04T03:49:21.478Z,60.58
2023-05-04T03:51:48.161Z,59.11
2023-05-04T03:54:14.811Z,60.20
2023-05-04T03:56:41.562Z,60.09
2023-05-04T03:59:09.324Z,61.17
2023-05-04T04:01:36.394Z,61.68
2023-05-04T04:04:03.273Z,61.48
2023-05-04T04:06:30.028Z,61.63
2023-05-04T04:08:56.723Z,62.01
2023-05-04T04:11:23.355Z,62.23
2023-05-04T04:13:50.040Z,61.53
2023-05-04T04:16:16.775Z,62.88
2023-05-04T04:18:43.460Z,62.15
2023-05-04T04:21:10.430Z,62.51
2023-05-04T04:23:37.056Z,61.80
2023-05-04T04:26:06.100Z,61.35
2023-05-04T04:28:33.421Z,62.12
2023-05-04T04:31:00.580Z,61.86
2023-05-04T04:33:27.287Z,60.15
2023-05-04T04:35:54.061Z,60.76
2023-05-04T04:38:21.268Z,60.83
2023-05-04T04:40:48.020Z,60.72
2023-05-04T04:43:14.879Z,61.49
2023-05-04T04:45:41.624Z,61.75
2023-05-04T04:48:08.259Z,61.86
2023-05-04T04:50:38.501Z,61.44
2023-05-04T04:53:05.273Z,61.81
2023-05-04T04:55:32.534Z,62.07
2023-05-04T04:57:59.152Z,61.84
2023-05-04T05:00:26.537Z,63.34
2023-05-04T05:02:53.614Z,62.64
2023-05-04T05:05:20.322Z,61.35
2023-05-04T05:07:47.526Z,60.54
2023-05-04T05:10:14.459Z,59.60
2023-05-04T05:12:41.501Z,59.65
2023-05-04T05:15:09.279Z,59.72
2023-05-04T05:17:37.486Z,60.10
2023-05-04T05:20:10.463Z,59.47
2023-05-04T05:22:41.203Z,59.33
2023-05-04T05:25:08.415Z,59.79
2023-05-04T05:27:36.538Z,59.76
2023-05-04T05:30:05.712Z,59.37
2023-05-04T05:32:35.205Z,59.04
2023-05-04T05:35:02.189Z,59.56
2023-05-04T05:37:32.556Z,59.03
2023-05-04T05:39:59.298Z,59.12
2023-05-04T05:42:26.099Z,58.66
2023-05-04T05:44:52.769Z,58.01
2023-05-04T05:47:19.646Z,59.46
2023-05-04T05:49:46.476Z,57.88
2023-05-04T05:52:13.328Z,57.93
2023-05-04T05:54:40.026Z,57.71
2023-05-04T05:57:06.657Z,57.64
2023-05-04T05:59:33.509Z,56.44
2023-05-04T06:02:00.473Z,56.23
2023-05-04T06:04:27.239Z,55.89
2023-05-04T06:06:53.979Z,55.75
2023-05-04T06:09:21.070Z,56.15
2023-05-04T06:11:47.855Z,54.31
2023-05-04T06:14:14.524Z,53.84
2023-05-04T06:16:41.403Z,53.23
2023-05-04T06:19:08.217Z,52.84
2023-05-04T06:21:34.873Z,53.88
2023-05-04T06:24:01.521Z,53.10
2023-05-04T06:26:28.376Z,52.12
2023-05-04T06:28:55.141Z,53.32
2023-05-04T06:31:22.148Z,53.35
2023-05-04T06:33:48.900Z,52.15
2023-05-04T06:36:15.541Z,52.40
2023-05-04T06:38:42.312Z,52.16
2023-05-04T06:41:09.226Z,51.92
2023-05-04T06:43:35.987Z,51.24
2023-05-04T06:46:03.623Z,51.92
2023-05-04T06:48:31.548Z,51.13
2023-05-04T06:50:59.654Z,51.22
2023-05-04T06:53:27.353Z,50.06
2023-05-04T06:55:54.180Z,50.67
2023-05-04T06:58:21.879Z,49.75
2023-05-04T07:00:48.669Z,49.75
2023-05-04T07:03:15.448Z,48.31
2023-05-04T07:05:44.521Z,47.74
2023-05-04T07:08:12.376Z,48.01
2023-05-04T07:10:39.370Z,45.54
2023-05-04T07:13:06.789Z,46.46
2023-05-04T07:15:33.911Z,45.64
2023-05-04T07:18:01.290Z,45.86
2023-05-04T07:20:28.290Z,45.42
2023-05-04T07:22:56.897Z,44.51
2023-05-04T07:25:25.078Z,44.03
2023-05-04T07:27:52.244Z,43.51
2023-05-04T07:30:19.774Z,42.98
2023-05-04T07:32:46.795Z,42.46
2023-05-04T07:35:13.548Z,42.22
2023-05-04T07:37:40.462Z,42.88
2023-05-04T07:40:08.040Z,42.70
2023-05-04T07:42:34.988Z,42.59
2023-05-04T07:45:01.734Z,42.53
2023-05-04T07:47:31.326Z,42.29
2023-05-04T07:49:59.179Z,42.40
2023-05-04T07:52:25.917Z,41.95
2023-05-04T07:54:53.371Z,41.44
2023-05-04T07:57:20.923Z,41.97
2023-05-04T07:59:47.854Z,41.29
2023-05-04T08:02:15.104Z,41.07
2023-05-04T08:04:41.772Z,40.37
2023-05-04T08:07:08.402Z,39.92
2023-05-04T08:09:35.065Z,39.50
2023-05-04T08:12:02.452Z,39.66
2023-05-04T08:14:29.529Z,40.46
2023-05-04T08:16:56.871Z,40.86
2023-05-04T08:19:23.781Z,41.22
2023-05-04T08:21:50.481Z,40.18
2023-05-04T08:24:18.358Z,40.42
2023-05-04T08:26:49.882Z,40.68
2023-05-04T08:29:26.739Z,41.06
2023-05-04T08:31:56.345Z,41.33
2023-05-04T08:34:23.203Z,41.13
2023-05-04T08:36:50.020Z,41.20
2023-05-04T08:39:18.424Z,42.09
2023-05-04T08:41:45.302Z,41.77
2023-05-04T08:44:11.999Z,42.00
2023-05-04T08:46:40.366Z,41.29
2023-05-04T08:49:07.663Z,39.07
2023-05-04T08:51:36.898Z,39.08
2023-05-04T08:54:08.823Z,39.33
2023-05-04T08:56:36.510Z,39.92
2023-05-04T08:59:03.798Z,38.61
2023-05-04T09:01:32.556Z,39.48
2023-05-04T09:04:02.333Z,41.26
2023-05-04T09:06:29.617Z,38.86
2023-05-04T09:08:56.412Z,40.30
2023-05-04T09:11:23.406Z,40.03
2023-05-04T09:13:50.242Z,39.00
2023-05-04T09:16:19.444Z,38.55
2023-05-04T09:18:46.468Z,37.53
2023-05-04T09:21:13.248Z,38.68
2023-05-04T09:23:51.335Z,39.17
2023-05-04T09:26:31.475Z,38.32
2023-05-04T09:29:14.128Z,38.94
2023-05-04T09:31:48.673Z,39.15
2023-05-04T09:34:15.750Z,38.54
2023-05-04T09:36:42.987Z,38.37
2023-05-04T09:39:13.490Z,37.87
2023-05-04T09:41:41.797Z,38.24
2023-05-04T09:44:22.307Z,37.95
2023-05-04T09:46:56.663Z,36.83
2023-05-04T09:49:34.562Z,35.65
2023-05-04T09:52:03.151Z,35.74
2023-05-04T09:54:39.039Z,35.31
2023-05-04T09:57:12.103Z,35.25
2023-05-04T09:59:39.655Z,35.76
2023-05-04T10:02:21.259Z,36.27
2023-05-04T10:04:51.640Z,36.00
2023-05-04T10:07:19.429Z,36.00
2023-05-04T10:09:48.572Z,36.62
2023-05-04T10:12:15.381Z,37.22
2023-05-04T10:14:46.595Z,36.52
2023-05-04T10:17:45.772Z,36.33
2023-05-04T10:20:32.548Z,36.15
2023-05-04T10:23:23.915Z,36.91
2023-05-04T10:26:05.889Z,36.14
2023-05-04T10:28:59.366Z,36.64
2023-05-04T10:31:37.265Z,36.93
2023-05-04T10:34:04.127Z,36.87
2023-05-04T10:36:38.120Z,36.01
2023-05-04T10:39:06.046Z,36.16
2023-05-04T10:41:32.710Z,36.45
2023-05-04T10:44:03.648Z,36.21
2023-05-04T10:46:30.603Z,36.70
2023-05-04T10:48:57.451Z,36.68
2023-05-04T10:51:30.165Z,36.41
2023-05-04T10:54:03.209Z,36.17
2023-05-04T10:56:29.881Z,36.85
2023-05-04T10:58:57.011Z,37.19
2023-05-04T11:01:26.806Z,36.02
2023-05-04T11:03:53.819Z,35.55
2023-05-04T11:06:25.031Z,36.42
2023-05-04T11:09:03.156Z,35.96
2023-05-04T11:11:30.323Z,36.22
2023-05-04T11:13:57.271Z,36.55
2023-05-04T11:16:26.107Z,36.83
2023-05-04T11:19:06.898Z,36.02
2023-05-04T11:21:33.596Z,36.57
2023-05-04T11:24:00.901Z,36.92
2023-05-04T11:26:28.608Z,37.14
2023-05-04T11:28:55.369Z,37.42
2023-05-04T11:31:23.030Z,37.67
2023-05-04T11:33:52.915Z,37.36
2023-05-04T11:36:20.250Z,37.91
2023-05-04T11:38:48.877Z,38.33
2023-05-04T11:41:15.598Z,37.43
2023-05-04T11:43:44.144Z,37.11
2023-05-04T11:46:11.437Z,37.13
2023-05-04T11:48:39.532Z,36.88
2023-05-04T11:51:06.693Z,36.98
2023-05-04T11:53:41.024Z,35.89
2023-05-04T11:56:09.084Z,36.12
2023-05-04T11:58:36.786Z,36.50
2023-05-04T12:01:04.131Z,36.40
2023-05-04T12:03:48.631Z,36.92
2023-05-04T12:06:18.785Z,37.00
2023-05-04T12:08:45.625Z,36.09
2023-05-04T12:11:14.493Z,34.95
2023-05-04T12:13:42.456Z,35.97
2023-05-04T12:16:20.129Z,36.53
2023-05-04T12:18:48.165Z,37.47
2023-05-04T12:21:18.521Z,37.70
2023-05-04T12:23:46.933Z,36.01
2023-05-04T12:26:16.298Z,35.27
2023-05-04T12:28:44.834Z,35.79
2023-05-04T12:31:11.580Z,35.15
2023-05-04T12:33:38.314Z,35.55
2023-05-04T12:36:06.168Z,35.91
2023-05-04T12:38:34.135Z,34.88
2023-05-04T12:41:04.246Z,35.24
2023-05-04T12:43:32.956Z,35.25
2023-05-04T12:46:00.554Z,35.19
2023-05-04T12:48:29.012Z,34.61
2023-05-04T12:50:56.003Z,34.49
2023-05-04T12:53:25.767Z,34.29
2023-05-04T12:55:52.595Z,33.67
2023-05-04T12:58:19.366Z,34.52
2023-05-04T13:00:46.331Z,33.86
2023-05-04T13:03:13.706Z,33.60
2023-05-04T13:05:40.548Z,33.11
2023-05-04T13:08:07.334Z,33.49
2023-05-04T13:10:34.131Z,34.45
2023-05-04T13:13:00.978Z,33.86
2023-05-04T13:15:28.110Z,33.68
2023-05-04T13:17:54.866Z,34.06
2023-05-04T13:20:22.546Z,34.15
2023-05-04T13:22:50.503Z,34.00
2023-05-04T13:25:17.222Z,34.82
2023-05-04T13:27:43.967Z,34.69
2023-05-04T13:30:11.407Z,34.37
2023-05-04T13:32:38.414Z,34.10
2023-05-04T13:35:07.214Z,34.19
2023-05-04T13:37:34.654Z,33.61
2023-05-04T13:40:01.849Z,34.06
2023-05-04T13:42:30.638Z,33.34
2023-05-04T13:44:57.711Z,33.48
2023-05-04T13:47:24.711Z,32.64
2023-05-04T13:49:51.762Z,31.65
2023-05-04T13:52:18.986Z,32.43
2023-05-04T13:54:46.257Z,32.88
2023-05-04T13:57:13.102Z,32.72
2023-05-04T13:59:39.762Z,32.70
2023-05-04T14:02:07.326Z,33.28
2023-05-04T14:04:34.007Z,33.68
2023-05-04T14:07:00.827Z,33.85
2023-05-04T14:09:27.495Z,33.47
2023-05-04T14:11:54.138Z,33.03
2023-05-04T14:14:21.997Z,32.76
2023-05-04T14:16:48.754Z,32.83
2023-05-04T14:19:15.566Z,32.54
2023-05-04T14:21:42.285Z,31.61
2023-05-04T14:24:09.011Z,32.23
2023-05-04T14:26:35.750Z,32.10
2023-05-04T14:29:02.471Z,31.95
2023-05-04T14:31:29.214Z,30.08
2023-05-04T14:33:57.011Z,30.77
2023-05-04T14:36:23.833Z,29.42
2023-05-04T14:38:50.644Z,29.98
2023-05-04T14:41:17.818Z,29.91
2023-05-04T14:43:44.568Z,30.32
2023-05-04T14:46:12.843Z,29.71
2023-05-04T14:48:39.712Z,28.25
2023-05-04T14:51:06.574Z,27.26
2023-05-04T14:53:36.878Z,26.11
2023-05-04T14:56:04.764Z,24.61
2023-05-04T14:58:31.389Z,23.25
2023-05-04T15:00:58.030Z,22.38
2023-05-04T15:03:25.927Z,21.35
2023-05-04T15:05:52.871Z,21.22
2023-05-04T15:08:19.663Z,20.21
2023-05-04T15:10:46.391Z,20.95
2023-05-04T15:13:15.643Z,20.59
2023-05-04T15:15:42.844Z,22.46
2023-05-04T15:18:09.899Z,21.45
2023-05-04T15:20:38.450Z,20.04
2023-05-04T15:23:10.478Z,19.20
2023-05-04T15:25:41.158Z,18.37
2023-05-04T15:28:10.644Z,17.54
2023-05-04T15:30:38.737Z,21.19
2023-05-04T15:33:05.850Z,20.04
2023-05-04T15:35:34.473Z,24.13
2023-05-04T15:38:02.180Z,24.64
2023-05-04T15:40:29.295Z,23.62
2023-05-04T15:42:56.408Z,24.88
2023-05-04T15:45:23.084Z,25.72
2023-05-04T15:47:49.813Z,26.57
2023-05-04T15:50:16.518Z,27.00
2023-05-04T15:52:43.166Z,27.32
2023-05-04T15:55:24.776Z,28.71
2023-05-04T15:57:53.779Z,27.72
2023-05-04T16:00:21.166Z,27.83
2023-05-04T16:02:48.149Z,28.18
2023-05-04T16:05:15.326Z,28.88
2023-05-04T16:07:42.116Z,28.44
2023-05-04T16:10:10.033Z,29.28
2023-05-04T16:12:41.363Z,28.84
2023-05-04T16:15:08.349Z,29.18
2023-05-04T16:17:35.444Z,29.38
2023-05-04T16:20:03.520Z,29.53
2023-05-04T16:22:32.145Z,29.32
2023-05-04T16:25:01.374Z,29.24
2023-05-04T16:27:28.778Z,29.31
2023-05-04T16:29:55.871Z,29.55
2023-05-04T16:32:23.051Z,28.75
2023-05-04T16:34:50.069Z,28.95
2023-05-04T16:37:18.388Z,29.19
2023-05-04T16:39:45.302Z,29.07
2023-05-04T16:42:12.524Z,29.13
2023-05-04T16:44:39.207Z,29.14
2023-05-04T16:47:06.928Z,29.43
2023-05-04T16:49:33.969Z,28.90
2023-05-04T16:52:01.903Z,28.92
2023-05-04T16:54:28.677Z,28.78
2023-05-04T16:56:55.404Z,28.83
2023-05-04T16:59:22.321Z,28.61
2023-05-04T17:01:49.199Z,29.00
2023-05-04T17:04:16.285Z,29.83
2023-05-04T17:06:43.000Z,29.23
2023-05-04T17:09:09.884Z,29.21
2023-05-04T17:11:36.597Z,29.40
2023-05-04T17:14:03.633Z,29.75
2023-05-04T17:16:30.565Z,29.84
2023-05-04T17:18:57.337Z,29.96
2023-05-04T17:21:23.997Z,29.80
2023-05-04T17:23:50.657Z,29.78
2023-05-04T17:26:17.291Z,29.95
2023-05-04T17:28:44.260Z,30.08
2023-05-04T17:31:12.382Z,30.09
2023-05-04T17:33:39.363Z,29.98
2023-05-04T17:36:07.490Z,30.26
2023-05-04T17:38:34.371Z,30.50
2023-05-04T17:41:01.181Z,30.65
2023-05-04T17:43:27.923Z,30.92
2023-05-04T17:45:55.957Z,31.07
2023-05-04T17:48:24.019Z,30.97
2023-05-04T17:50:51.371Z,30.99
2023-05-04T17:53:18.089Z,31.22
2023-05-04T17:55:44.747Z,36.57
2023-05-04T17:58:11.596Z,33.87
2023-05-04T18:00:38.251Z,33.48
2023-05-04T18:03:05.302Z,34.55
2023-05-04T18:05:32.118Z,36.70
2023-05-04T18:07:58.945Z,34.71
2023-05-04T18:10:25.801Z,34.62
2023-05-04T18:12:52.665Z,37.87
2023-05-04T18:15:19.613Z,37.93
2023-05-04T18:17:46.352Z,34.79
2023-05-04T18:20:13.217Z,37.35
2023-05-04T18:22:40.117Z,35.51
2023-05-04T18:25:07.321Z,34.86
2023-05-04T18:27:34.960Z,33.42
2023-05-04T18:30:03.372Z,33.95
2023-05-04T18:32:33.937Z,34.41
2023-05-04T18:35:01.423Z,34.05
2023-05-04T18:37:31.965Z,33.49
2023-05-04T18:39:59.243Z,34.18
2023-05-04T18:42:26.240Z,35.51
2023-05-04T18:44:53.694Z,37.81
2023-05-04T18:47:21.027Z,35.05
2023-05-04T18:49:52.352Z,35.33
2023-05-04T18:52:19.145Z,35.76
2023-05-04T18:54:46.134Z,35.59
2023-05-04T18:57:14.110Z,35.38
2023-05-04T18:59:41.026Z,35.14
2023-05-04T19:02:08.375Z,36.09
2023-05-04T19:04:35.500Z,36.13
2023-05-04T19:07:02.204Z,36.15
2023-05-04T19:09:28.963Z,36.06
2023-05-04T19:11:55.750Z,35.82
2023-05-04T19:14:22.481Z,36.37
2023-05-04T19:16:49.228Z,37.21
2023-05-04T19:19:15.870Z,36.96
2023-05-04T19:21:43.809Z,36.50
2023-05-04T19:24:10.645Z,37.34
2023-05-04T19:26:38.940Z,36.70
2023-05-04T19:29:05.838Z,37.15
2023-05-04T19:31:33.142Z,36.92
2023-05-04T19:33:59.963Z,36.95
2023-05-04T19:36:27.380Z,36.87
2023-05-04T19:38:54.486Z,37.23
2023-05-04T19:41:21.260Z,37.48
2023-05-04T19:43:47.927Z,37.65
2023-05-04T19:46:14.767Z,37.46
2023-05-04T19:48:41.874Z,37.79
2023-05-04T19:51:09.884Z,37.49
2023-05-04T19:53:36.605Z,37.53
2023-05-04T19:56:03.394Z,38.44
2023-05-04T19:58:30.848Z,38.13
2023-05-04T20:00:57.890Z,37.21
2023-05-04T20:03:24.837Z,37.53
2023-05-04T20:05:51.794Z,37.42
2023-05-04T20:08:18.704Z,36.98
2023-05-04T20:10:45.415Z,37.47
2023-05-04T20:13:12.419Z,37.15
2023-05-04T20:15:39.353Z,36.91
2023-05-04T20:18:06.379Z,38.01
2023-05-04T20:20:33.181Z,37.22
2023-05-04T20:22:59.915Z,37.11
2023-05-04T20:25:27.643Z,36.66
2023-05-04T20:27:54.639Z,36.99
2023-05-04T20:30:21.487Z,37.09
2023-05-04T20:32:48.768Z,37.24
2023-05-04T20:35:16.401Z,37.61
2023-05-04T20:37:43.459Z,38.52
2023-05-04T20:40:10.838Z,37.93
2023-05-04T20:42:38.343Z,38.49
2023-05-04T20:45:05.899Z,37.95
2023-05-04T20:47:34.220Z,38.63
2023-05-04T20:50:01.029Z,38.03
2023-05-04T20:52:28.319Z,38.50
2023-05-04T20:54:54.918Z,38.65
2023-05-04T20:57:21.640Z,38.59
2023-05-04T20:59:48.334Z,38.96
2023-05-04T21:02:15.069Z,39.00
2023-05-04T21:04:43.275Z,38.89
2023-05-04T21:07:10.348Z,39.21
2023-05-04T21:09:37.119Z,39.22
2023-05-04T21:12:04.087Z,39.00
2023-05-04T21:14:31.110Z,39.02
2023-05-04T21:16:57.920Z,39.47
2023-05-04T21:19:24.744Z,39.73
2023-05-04T21:21:52.034Z,40.31
2023-05-04T21:24:18.911Z,40.65
2023-05-04T21:26:45.966Z,41.37
2023-05-04T21:29:13.020Z,41.84
2023-05-04T21:31:40.388Z,41.70
2023-05-04T21:34:07.755Z,42.28
2023-05-04T21:36:34.681Z,41.98
2023-05-04T21:39:01.583Z,42.68
2023-05-04T21:41:28.390Z,42.66
2023-05-04T21:43:55.167Z,42.78
2023-05-04T21:46:22.170Z,42.45
2023-05-04T21:48:49.022Z,42.27
2023-05-04T21:51:15.724Z,42.50
2023-05-04T21:53:45.624Z,43.14
2023-05-04T21:56:12.557Z,42.33
2023-05-04T21:58:40.554Z,42.33
2023-05-04T22:01:08.233Z,41.08
2023-05-04T22:03:35.704Z,41.49
2023-05-04T22:06:02.483Z,41.73
2023-05-04T22:08:29.742Z,42.06
2023-05-04T22:10:57.289Z,41.10
2023-05-04T22:13:24.427Z,43.02
2023-05-04T22:15:51.451Z,43.27
2023-05-04T22:18:18.751Z,44.31
2023-05-04T22:20:46.053Z,45.03
2023-05-04T22:23:13.313Z,46.27
2023-05-04T22:25:40.430Z,45.84
2023-05-04T22:28:07.115Z,44.25
2023-05-04T22:30:33.891Z,43.75
2023-05-04T22:33:00.849Z,44.45
2023-05-04T22:35:27.607Z,44.70
2023-05-04T22:37:54.250Z,44.82
2023-05-04T22:40:21.144Z,44.80
2023-05-04T22:42:47.767Z,43.37
2023-05-04T22:45:15.256Z,44.69
2023-05-04T22:47:42.115Z,44.93
2023-05-04T22:50:09.545Z,45.51
2023-05-04T22:52:37.703Z,45.45
2023-05-04T22:55:05.695Z,43.01
2023-05-04T22:57:32.610Z,42.26
2023-05-04T22:59:59.360Z,42.41
2023-05-04T23:02:26.115Z,43.35
2023-05-04T23:04:53.195Z,43.42
2023-05-04T23:07:19.908Z,43.83
2023-05-04T23:09:46.759Z,45.48
2023-05-04T23:12:13.939Z,42.70
2023-05-04T23:14:40.589Z,42.72
2023-05-04T23:17:07.607Z,42.77
2023-05-04T23:19:34.258Z,42.90
2023-05-04T23:22:00.881Z,43.21
2023-05-04T23:24:27.486Z,43.72
2023-05-04T23:26:54.143Z,44.20
2023-05-04T23:29:20.809Z,44.69
2023-05-04T23:31:48.342Z,44.97
2023-05-04T23:34:14.957Z,45.31
2023-05-04T23:36:41.763Z,45.60
2023-05-04T23:39:08.542Z,45.87
2023-05-04T23:41:35.082Z,45.98
2023-05-04T23:44:01.956Z,46.00
2023-05-04T23:46:28.751Z,45.97
2023-05-04T23:48:56.013Z,45.81
2023-05-04T23:51:22.598Z,46.42
2023-05-04T23:53:49.275Z,46.27
2023-05-04T23:56:15.884Z,46.58
2023-05-04T23:58:42.509Z,46.65
